createdAt,value
2023-02-13T00:00:24.525Z,75.89
2023-02-13T00:02:52.460Z,76.07
2023-02-13T00:05:19.912Z,74.64
2023-02-13T00:07:47.248Z,74.65
2023-02-13T00:10:14.544Z,74.89
2023-02-13T00:12:41.996Z,74.81
2023-02-13T00:15:09.890Z,74.50
2023-02-13T00:17:37.348Z,74.35
2023-02-13T00:20:05.479Z,74.35
2023-02-13T00:22:36.556Z,74.38
2023-02-13T00:25:05.226Z,74.08
2023-02-13T00:27:32.830Z,75.71
2023-02-13T00:30:00.265Z,75.84
2023-02-13T00:32:27.488Z,75.44
2023-02-13T00:34:56.571Z,76.89
2023-02-13T00:37:24.910Z,76.72
2023-02-13T00:39:52.952Z,76.49
2023-02-13T00:42:24.038Z,75.52
2023-02-13T00:44:51.375Z,75.58
2023-02-13T00:47:19.281Z,75.49
2023-02-13T00:49:46.570Z,76.30
2023-02-13T00:52:13.862Z,76.07
2023-02-13T00:54:41.254Z,76.52
2023-02-13T00:57:08.548Z,76.80
2023-02-13T00:59:35.846Z,77.02
2023-02-13T01:02:03.485Z,76.73
2023-02-13T01:04:31.987Z,76.38
2023-02-13T01:06:59.282Z,76.35
2023-02-13T01:09:26.634Z,76.08
2023-02-13T01:11:54.127Z,75.98
2023-02-13T01:14:21.428Z,76.04
2023-02-13T01:16:49.870Z,76.38
2023-02-13T01:19:17.385Z,76.23
2023-02-13T01:21:44.672Z,76.15
2023-02-13T01:24:11.998Z,75.83
2023-02-13T01:26:39.329Z,75.82
2023-02-13T01:29:07.149Z,77.39
2023-02-13T01:31:34.610Z,77.20
2023-02-13T01:34:01.897Z,77.63
2023-02-13T01:36:29.232Z,76.90
2023-02-13T01:38:58.035Z,76.29
2023-02-13T01:41:26.724Z,75.76
2023-02-13T01:43:59.422Z,75.95
2023-02-13T01:46:32.135Z,76.35
2023-02-13T01:49:10.016Z,76.31
2023-02-13T01:51:37.770Z,75.83
2023-02-13T01:54:19.870Z,75.90
2023-02-13T01:56:52.848Z,76.29
2023-02-13T01:59:25.339Z,76.03
2023-02-13T02:01:53.784Z,76.07
2023-02-13T02:04:25.744Z,76.29
2023-02-13T02:06:59.144Z,76.49
2023-02-13T02:09:33.239Z,76.32
2023-02-13T02:12:09.136Z,76.15
2023-02-13T02:14:40.828Z,75.78
2023-02-13T02:17:11.236Z,75.86
2023-02-13T02:19:49.391Z,76.61
2023-02-13T02:22:19.754Z,76.00
2023-02-13T02:24:56.192Z,77.46
2023-02-13T02:27:37.108Z,77.74
2023-02-13T02:30:26.453Z,78.88
2023-02-13T02:33:09.745Z,78.13
2023-02-13T02:35:59.186Z,77.85
2023-02-13T02:38:26.518Z,77.63
2023-02-13T02:41:10.513Z,77.60
2023-02-13T02:43:59.289Z,76.89
2023-02-13T02:47:26.775Z,77.11
2023-02-13T02:50:09.150Z,78.63
2023-02-13T02:52:52.760Z,78.70
2023-02-13T02:55:32.476Z,79.00
2023-02-13T02:58:31.587Z,79.45
2023-02-13T03:01:19.936Z,78.30
2023-02-13T03:04:06.439Z,78.64
2023-02-13T03:06:53.648Z,78.18
2023-02-13T03:09:43.073Z,78.27
2023-02-13T03:12:30.405Z,79.07
2023-02-13T03:14:57.726Z,78.56
2023-02-13T03:17:43.505Z,78.34
2023-02-13T03:20:42.679Z,78.28
2023-02-13T03:23:29.163Z,78.61
2023-02-13T03:26:33.317Z,77.82
2023-02-13T03:29:33.390Z,79.39
2023-02-13T03:32:07.214Z,78.46
2023-02-13T03:34:56.894Z,78.58
2023-02-13T03:37:48.716Z,78.55
2023-02-13T03:40:20.870Z,78.59
2023-02-13T03:42:49.018Z,79.05
2023-02-13T03:45:40.028Z,78.56
2023-02-13T03:48:31.552Z,78.46
2023-02-13T03:51:00.322Z,78.67
2023-02-13T03:53:29.679Z,78.93
2023-02-13T03:56:17.560Z,78.47
2023-02-13T03:59:07.442Z,79.10
2023-02-13T04:01:36.111Z,78.67
2023-02-13T04:04:14.019Z,78.24
2023-02-13T04:07:10.657Z,78.97
2023-02-13T04:09:40.807Z,79.79
2023-02-13T04:12:19.203Z,79.35
2023-02-13T04:14:58.027Z,79.81
2023-02-13T04:17:30.479Z,78.88
2023-02-13T04:19:57.724Z,78.55
2023-02-13T04:22:24.969Z,78.24
2023-02-13T04:24:52.351Z,78.50
2023-02-13T04:27:19.787Z,79.09
2023-02-13T04:29:47.084Z,78.90
2023-02-13T04:32:14.921Z,78.69
2023-02-13T04:34:42.214Z,78.19
2023-02-13T04:37:09.719Z,79.63
2023-02-13T04:39:37.050Z,79.97
2023-02-13T04:42:04.412Z,80.63
2023-02-13T04:44:31.686Z,80.82
2023-02-13T04:46:59.005Z,81.04
2023-02-13T04:49:26.345Z,81.04
2023-02-13T04:51:53.733Z,82.03
2023-02-13T04:54:20.930Z,82.33
2023-02-13T04:56:48.234Z,82.88
2023-02-13T04:59:15.558Z,82.61
2023-02-13T05:01:43.047Z,83.21
2023-02-13T05:04:11.403Z,82.15
2023-02-13T05:06:38.819Z,81.82
2023-02-13T05:09:06.136Z,82.85
2023-02-13T05:11:33.385Z,82.62
2023-02-13T05:14:00.587Z,82.55
2023-02-13T05:16:27.927Z,82.67
2023-02-13T05:18:55.410Z,81.37
2023-02-13T05:21:40.962Z,81.56
2023-02-13T05:24:08.222Z,81.82
2023-02-13T05:26:35.524Z,81.99
2023-02-13T05:29:22.715Z,82.14
2023-02-13T05:31:53.325Z,82.14
2023-02-13T05:34:22.104Z,81.96
2023-02-13T05:36:49.712Z,82.28
2023-02-13T05:39:17.200Z,82.09
2023-02-13T05:41:45.553Z,82.46
2023-02-13T05:44:13.561Z,83.15
2023-02-13T05:46:41.744Z,83.18
2023-02-13T05:49:10.100Z,83.04
2023-02-13T05:51:37.486Z,82.73
2023-02-13T05:54:04.898Z,82.65
2023-02-13T05:56:32.121Z,83.44
2023-02-13T05:58:59.581Z,84.19
2023-02-13T06:01:26.996Z,84.27
2023-02-13T06:03:54.388Z,84.37
2023-02-13T06:06:22.835Z,83.61
2023-02-13T06:08:50.199Z,82.92
2023-02-13T06:11:17.964Z,82.67
2023-02-13T06:13:45.337Z,83.00
2023-02-13T06:16:13.267Z,82.98
2023-02-13T06:18:40.616Z,82.78
2023-02-13T06:21:08.681Z,82.51
2023-02-13T06:23:36.248Z,82.09
2023-02-13T06:26:05.360Z,83.23
2023-02-13T06:28:32.997Z,83.27
2023-02-13T06:31:00.980Z,83.15
2023-02-13T06:33:28.862Z,82.41
2023-02-13T06:35:56.162Z,82.00
2023-02-13T06:38:24.487Z,82.13
2023-02-13T06:40:52.201Z,82.40
2023-02-13T06:43:19.494Z,83.61
2023-02-13T06:45:47.311Z,83.01
2023-02-13T06:48:15.124Z,83.08
2023-02-13T06:50:42.469Z,83.22
2023-02-13T06:53:09.737Z,83.13
2023-02-13T06:55:39.444Z,83.02
2023-02-13T06:58:06.751Z,82.70
2023-02-13T07:00:34.195Z,82.53
2023-02-13T07:03:03.218Z,82.68
2023-02-13T07:05:30.768Z,83.12
2023-02-13T07:07:58.143Z,82.94
2023-02-13T07:10:25.511Z,83.13
2023-02-13T07:13:05.010Z,82.50
2023-02-13T07:15:36.892Z,83.06
2023-02-13T07:18:04.884Z,83.94
2023-02-13T07:20:33.140Z,83.47
2023-02-13T07:23:01.720Z,83.01
2023-02-13T07:25:29.557Z,83.69
2023-02-13T07:28:04.394Z,83.62
2023-02-13T07:30:32.991Z,83.97
2023-02-13T07:33:01.461Z,84.04
2023-02-13T07:35:28.881Z,83.50
2023-02-13T07:37:56.358Z,84.02
2023-02-13T07:40:23.794Z,84.08
2023-02-13T07:42:51.107Z,84.34
2023-02-13T07:45:18.725Z,85.13
2023-02-13T07:47:46.110Z,85.51
2023-02-13T07:50:13.484Z,84.92
2023-02-13T07:52:40.777Z,83.70
2023-02-13T07:55:08.634Z,83.08
2023-02-13T07:57:35.940Z,82.75
2023-02-13T08:00:03.685Z,82.97
2023-02-13T08:02:39.335Z,83.58
2023-02-13T08:05:07.138Z,83.30
2023-02-13T08:07:34.926Z,83.57
2023-02-13T08:10:20.849Z,83.77
2023-02-13T08:12:48.303Z,84.39
2023-02-13T08:15:16.208Z,84.43
2023-02-13T08:17:43.558Z,83.93
2023-02-13T08:20:11.446Z,84.54
2023-02-13T08:22:39.383Z,84.03
2023-02-13T08:25:08.622Z,83.23
2023-02-13T08:27:35.929Z,82.68
2023-02-13T08:30:04.997Z,82.35
2023-02-13T08:32:41.932Z,81.90
2023-02-13T08:35:19.550Z,81.20
2023-02-13T08:37:47.761Z,81.18
2023-02-13T08:40:15.122Z,82.10
2023-02-13T08:42:42.391Z,81.84
2023-02-13T08:45:11.648Z,81.88
2023-02-13T08:47:39.935Z,81.91
2023-02-13T08:50:08.099Z,81.87
2023-02-13T08:52:35.782Z,81.79
2023-02-13T08:55:03.891Z,81.24
2023-02-13T08:57:31.573Z,82.14
2023-02-13T08:59:58.880Z,81.58
2023-02-13T09:02:26.274Z,81.74
2023-02-13T09:04:53.615Z,80.29
2023-02-13T09:07:20.877Z,80.53
2023-02-13T09:09:48.267Z,80.92
2023-02-13T09:12:15.579Z,80.11
2023-02-13T09:14:43.001Z,80.33
2023-02-13T09:17:10.397Z,81.22
2023-02-13T09:19:37.809Z,80.42
2023-02-13T09:22:05.025Z,80.78
2023-02-13T09:24:32.212Z,80.39
2023-02-13T09:26:59.568Z,80.04
2023-02-13T09:29:30.339Z,79.80
2023-02-13T09:31:57.982Z,79.40
2023-02-13T09:34:25.586Z,79.96
2023-02-13T09:36:55.686Z,79.43
2023-02-13T09:39:22.840Z,80.14
2023-02-13T09:41:51.299Z,79.59
2023-02-13T09:44:42.303Z,79.61
2023-02-13T09:47:18.774Z,78.83
2023-02-13T09:49:50.239Z,78.15
2023-02-13T09:52:17.567Z,77.54
2023-02-13T09:54:44.916Z,77.37
2023-02-13T09:57:35.074Z,77.71
2023-02-13T10:00:44.576Z,77.40
2023-02-13T10:03:19.527Z,77.64
2023-02-13T10:06:02.089Z,77.14
2023-02-13T10:08:44.263Z,77.21
2023-02-13T10:11:27.837Z,77.06
2023-02-13T10:14:16.251Z,77.17
2023-02-13T10:17:21.524Z,76.79
2023-02-13T10:19:59.323Z,76.70
2023-02-13T10:22:33.445Z,77.35
2023-02-13T10:25:04.887Z,76.11
2023-02-13T10:27:36.150Z,75.96
2023-02-13T10:30:12.546Z,74.91
2023-02-13T10:33:11.200Z,74.97
2023-02-13T10:35:39.047Z,74.36
2023-02-13T10:38:16.953Z,73.66
2023-02-13T10:41:10.212Z,73.90
2023-02-13T10:44:15.845Z,74.00
2023-02-13T10:46:55.258Z,73.74
2023-02-13T10:49:43.930Z,73.38
2023-02-13T10:52:17.533Z,73.14
2023-02-13T10:55:07.012Z,72.92
2023-02-13T10:57:40.508Z,72.67
2023-02-13T11:00:24.991Z,71.91
2023-02-13T11:02:52.414Z,72.02
2023-02-13T11:05:24.525Z,71.30
2023-02-13T11:07:51.820Z,71.46
2023-02-13T11:10:22.688Z,72.03
2023-02-13T11:12:50.855Z,71.60
2023-02-13T11:15:29.666Z,71.34
2023-02-13T11:18:00.758Z,70.79
2023-02-13T11:20:34.756Z,70.01
2023-02-13T11:23:27.874Z,70.03
2023-02-13T11:26:04.381Z,69.28
2023-02-13T11:28:36.076Z,68.94
2023-02-13T11:31:26.136Z,69.24
2023-02-13T11:33:53.606Z,69.11
2023-02-13T11:36:32.545Z,68.29
2023-02-13T11:39:17.335Z,67.84
2023-02-13T11:41:46.251Z,67.02
2023-02-13T11:44:29.869Z,67.31
2023-02-13T11:47:00.216Z,66.91
2023-02-13T11:49:30.424Z,66.75
2023-02-13T11:51:58.348Z,66.37
2023-02-13T11:54:44.847Z,66.63
2023-02-13T11:57:15.210Z,66.08
2023-02-13T11:59:44.845Z,65.73
2023-02-13T12:02:29.875Z,65.80
2023-02-13T12:05:16.052Z,66.52
2023-02-13T12:07:44.817Z,65.89
2023-02-13T12:10:15.135Z,65.25
2023-02-13T12:12:53.759Z,65.07
2023-02-13T12:15:24.799Z,64.77
2023-02-13T12:18:00.257Z,64.36
2023-02-13T12:20:28.738Z,64.00
2023-02-13T12:23:01.707Z,63.55
2023-02-13T12:25:49.286Z,62.95
2023-02-13T12:28:20.498Z,62.90
2023-02-13T12:31:14.368Z,62.68
2023-02-13T12:33:59.184Z,62.23
2023-02-13T12:36:58.708Z,62.00
2023-02-13T12:39:37.782Z,61.62
2023-02-13T12:42:17.248Z,61.04
2023-02-13T12:45:02.094Z,61.46
2023-02-13T12:47:31.623Z,61.61
2023-02-13T12:50:05.217Z,61.21
2023-02-13T12:53:04.994Z,60.63
2023-02-13T12:55:44.794Z,61.08
2023-02-13T12:58:34.050Z,60.20
2023-02-13T13:01:07.346Z,60.21
2023-02-13T13:03:46.972Z,60.62
2023-02-13T13:06:35.734Z,60.23
2023-02-13T13:09:19.637Z,59.50
2023-02-13T13:11:56.182Z,59.52
2023-02-13T13:14:47.298Z,59.12
2023-02-13T13:17:23.427Z,58.88
2023-02-13T13:20:00.608Z,59.27
2023-02-13T13:22:35.489Z,58.49
2023-02-13T13:25:12.868Z,57.98
2023-02-13T13:27:46.536Z,57.41
2023-02-13T13:30:29.112Z,57.26
2023-02-13T13:33:06.266Z,57.52
2023-02-13T13:35:34.757Z,57.96
2023-02-13T13:38:13.469Z,58.28
2023-02-13T13:40:57.441Z,58.05
2023-02-13T13:43:25.917Z,58.11
2023-02-13T13:45:59.329Z,57.86
2023-02-13T13:49:21.044Z,57.70
2023-02-13T13:51:48.369Z,57.26
2023-02-13T13:54:15.504Z,57.40
2023-02-13T13:56:56.843Z,57.08
2023-02-13T13:59:33.438Z,57.65
2023-02-13T14:02:24.065Z,57.83
2023-02-13T14:05:01.714Z,57.53
2023-02-13T14:07:38.208Z,57.59
2023-02-13T14:10:06.739Z,57.31
2023-02-13T14:12:33.936Z,57.07
2023-02-13T14:15:01.301Z,56.71
2023-02-13T14:17:46.920Z,57.28
2023-02-13T14:20:44.361Z,57.56
2023-02-13T14:23:37.962Z,57.25
2023-02-13T14:26:17.514Z,56.36
2023-02-13T14:28:47.472Z,56.15
2023-02-13T14:31:27.999Z,56.99
2023-02-13T14:34:04.036Z,56.42
2023-02-13T14:36:33.747Z,56.95
2023-02-13T14:39:26.700Z,56.62
2023-02-13T14:41:56.894Z,56.08
2023-02-13T14:44:29.981Z,55.23
2023-02-13T14:46:58.860Z,55.94
2023-02-13T14:49:30.208Z,56.14
2023-02-13T14:52:00.588Z,55.52
2023-02-13T14:54:33.025Z,55.67
2023-02-13T14:57:17.827Z,55.47
2023-02-13T14:59:48.331Z,55.71
2023-02-13T15:02:21.947Z,55.60
2023-02-13T15:05:05.119Z,56.05
2023-02-13T15:07:35.812Z,55.83
2023-02-13T15:10:47.101Z,55.35
2023-02-13T15:13:48.975Z,54.86
2023-02-13T15:16:17.163Z,54.66
2023-02-13T15:18:52.626Z,55.05
2023-02-13T15:21:22.192Z,54.91
2023-02-13T15:23:50.765Z,54.16
2023-02-13T15:26:27.999Z,53.54
2023-02-13T15:29:02.279Z,53.59
2023-02-13T15:31:34.874Z,53.18
2023-02-13T15:34:02.253Z,53.38
2023-02-13T15:36:40.722Z,53.13
2023-02-13T15:39:10.387Z,52.96
2023-02-13T15:41:39.158Z,52.93
2023-02-13T15:44:07.084Z,52.20
2023-02-13T15:46:37.064Z,52.02
2023-02-13T15:49:07.480Z,52.07
2023-02-13T15:51:35.199Z,51.47
2023-02-13T15:54:20.624Z,50.73
2023-02-13T15:56:48.886Z,51.35
2023-02-13T15:59:17.917Z,51.61
2023-02-13T16:01:46.130Z,51.76
2023-02-13T16:04:15.158Z,51.53
2023-02-13T16:06:44.500Z,52.13
2023-02-13T16:09:27.455Z,51.95
2023-02-13T16:12:19.701Z,52.75
2023-02-13T16:14:52.724Z,52.83
2023-02-13T16:17:37.510Z,52.71
2023-02-13T16:20:18.600Z,52.36
2023-02-13T16:22:53.939Z,52.88
2023-02-13T16:25:36.650Z,52.63
2023-02-13T16:28:24.946Z,52.17
2023-02-13T16:30:58.567Z,53.07
2023-02-13T16:33:30.800Z,53.18
2023-02-13T16:36:10.368Z,52.65
2023-02-13T16:38:44.493Z,52.68
2023-02-13T16:41:18.139Z,53.03
2023-02-13T16:43:56.386Z,53.38
2023-02-13T16:46:32.300Z,52.42
2023-02-13T16:49:06.732Z,52.36
2023-02-13T16:51:39.604Z,52.08
2023-02-13T16:54:15.618Z,52.48
2023-02-13T16:56:53.874Z,52.37
2023-02-13T16:59:21.172Z,52.45
2023-02-13T17:01:48.993Z,52.73
2023-02-13T17:04:24.834Z,52.61
2023-02-13T17:06:55.310Z,52.38
2023-02-13T17:09:23.166Z,52.87
2023-02-13T17:11:51.878Z,53.10
2023-02-13T17:14:20.541Z,53.07
2023-02-13T17:16:48.818Z,53.30
2023-02-13T17:19:16.373Z,53.40
2023-02-13T17:21:43.724Z,53.09
2023-02-13T17:24:17.543Z,53.36
2023-02-13T17:26:46.034Z,54.06
2023-02-13T17:29:13.394Z,53.64
2023-02-13T17:31:40.893Z,54.61
2023-02-13T17:34:11.375Z,54.66
2023-02-13T17:36:38.647Z,54.08
2023-02-13T17:39:05.982Z,54.18
2023-02-13T17:41:33.211Z,54.69
2023-02-13T17:44:00.437Z,55.47
2023-02-13T17:46:27.756Z,55.68
2023-02-13T17:48:55.178Z,55.65
2023-02-13T17:51:22.458Z,55.52
2023-02-13T17:53:50.325Z,55.10
2023-02-13T17:56:17.544Z,55.76
2023-02-13T17:58:44.892Z,55.63
2023-02-13T18:01:12.220Z,56.36
2023-02-13T18:03:40.421Z,56.24
2023-02-13T18:06:12.490Z,56.08
2023-02-13T18:08:39.861Z,56.41
2023-02-13T18:11:11.762Z,56.10
2023-02-13T18:13:43.929Z,56.36
2023-02-13T18:16:12.500Z,56.04
2023-02-13T18:18:39.911Z,55.91
2023-02-13T18:21:07.218Z,56.31
2023-02-13T18:23:34.579Z,57.18
2023-02-13T18:26:09.832Z,57.47
2023-02-13T18:28:38.017Z,58.03
2023-02-13T18:31:06.056Z,57.97
2023-02-13T18:33:33.374Z,57.41
2023-02-13T18:36:03.932Z,57.41
2023-02-13T18:38:31.291Z,57.57
2023-02-13T18:40:58.942Z,57.42
2023-02-13T18:43:27.495Z,57.53
2023-02-13T18:45:55.062Z,57.60
2023-02-13T18:48:23.274Z,57.49
2023-02-13T18:50:50.653Z,58.53
2023-02-13T18:53:21.215Z,58.68
2023-02-13T18:55:48.593Z,58.09
2023-02-13T18:58:15.839Z,57.46
2023-02-13T19:00:43.504Z,57.38
2023-02-13T19:03:13.386Z,57.52
2023-02-13T19:05:53.047Z,58.56
2023-02-13T19:08:20.817Z,58.18
2023-02-13T19:10:48.675Z,57.92
2023-02-13T19:13:16.468Z,58.14
2023-02-13T19:15:45.452Z,58.14
2023-02-13T19:18:14.800Z,58.60
2023-02-13T19:20:42.897Z,58.79
2023-02-13T19:23:10.217Z,58.28
2023-02-13T19:25:38.117Z,58.59
2023-02-13T19:28:05.638Z,58.30
2023-02-13T19:30:33.162Z,58.54
2023-02-13T19:33:00.557Z,58.33
2023-02-13T19:35:27.948Z,58.32
2023-02-13T19:37:55.246Z,58.81
2023-02-13T19:40:22.648Z,59.34
2023-02-13T19:42:49.944Z,59.71
2023-02-13T19:45:17.275Z,59.62
2023-02-13T19:47:45.511Z,60.09
2023-02-13T19:50:13.137Z,60.49
2023-02-13T19:52:40.528Z,61.19
2023-02-13T19:55:07.992Z,62.00
2023-02-13T19:57:35.711Z,61.47
2023-02-13T20:00:04.713Z,61.96
2023-02-13T20:02:39.173Z,62.03
2023-02-13T20:05:08.511Z,61.77
2023-02-13T20:07:35.936Z,61.79
2023-02-13T20:10:04.467Z,62.18
2023-02-13T20:12:34.514Z,63.09
2023-02-13T20:15:02.143Z,62.76
2023-02-13T20:17:29.754Z,62.94
2023-02-13T20:19:58.073Z,62.39
2023-02-13T20:22:25.460Z,63.45
2023-02-13T20:24:52.772Z,63.43
2023-02-13T20:27:20.269Z,63.51
2023-02-13T20:29:47.838Z,63.22
2023-02-13T20:32:16.466Z,63.14
2023-02-13T20:34:59.123Z,63.67
2023-02-13T20:37:35.390Z,63.66
2023-02-13T20:40:04.266Z,63.94
2023-02-13T20:42:34.575Z,64.57
2023-02-13T20:45:01.943Z,64.88
2023-02-13T20:47:29.402Z,65.36
2023-02-13T20:49:56.640Z,64.86
2023-02-13T20:52:24.078Z,65.33
2023-02-13T20:54:51.571Z,65.35
2023-02-13T20:57:19.241Z,65.79
2023-02-13T20:59:55.391Z,65.22
2023-02-13T21:02:22.837Z,65.37
2023-02-13T21:04:50.376Z,65.18
2023-02-13T21:07:17.751Z,64.99
2023-02-13T21:09:45.090Z,65.25
2023-02-13T21:12:12.427Z,66.49
2023-02-13T21:14:40.918Z,66.66
2023-02-13T21:17:09.722Z,66.94
2023-02-13T21:19:37.005Z,67.30
2023-02-13T21:22:13.404Z,68.15
2023-02-13T21:24:43.851Z,67.59
2023-02-13T21:27:11.600Z,67.77
2023-02-13T21:29:41.999Z,67.46
2023-02-13T21:32:10.364Z,67.01
2023-02-13T21:34:39.734Z,66.84
2023-02-13T21:37:10.071Z,66.93
2023-02-13T21:39:37.585Z,66.72
2023-02-13T21:42:05.197Z,66.86
2023-02-13T21:44:33.873Z,66.66
2023-02-13T21:47:06.790Z,66.98
2023-02-13T21:49:35.911Z,66.56
2023-02-13T21:52:03.601Z,66.37
2023-02-13T21:54:30.960Z,66.31
2023-02-13T21:56:58.280Z,66.77
2023-02-13T21:59:25.804Z,66.34
2023-02-13T22:01:54.630Z,66.30
2023-02-13T22:04:22.246Z,67.19
2023-02-13T22:06:51.394Z,67.57
2023-02-13T22:09:19.744Z,67.32
2023-02-13T22:11:47.547Z,67.82
2023-02-13T22:14:17.187Z,67.66
2023-02-13T22:16:46.010Z,67.74
2023-02-13T22:19:15.377Z,67.46
2023-02-13T22:21:43.038Z,67.90
2023-02-13T22:24:10.662Z,67.98
2023-02-13T22:26:39.901Z,68.46
2023-02-13T22:29:09.568Z,68.82
2023-02-13T22:31:37.576Z,68.64
2023-02-13T22:34:05.951Z,68.79
2023-02-13T22:36:35.178Z,68.51
2023-02-13T22:39:02.585Z,68.62
2023-02-13T22:41:30.126Z,67.64
2023-02-13T22:43:57.731Z,67.75
2023-02-13T22:46:27.279Z,67.76
2023-02-13T22:48:55.058Z,68.06
2023-02-13T22:51:25.560Z,68.39
2023-02-13T22:53:54.511Z,67.83
2023-02-13T22:56:22.859Z,68.05
2023-02-13T22:58:50.232Z,67.88
2023-02-13T23:01:19.465Z,67.95
2023-02-13T23:03:47.030Z,68.75
2023-02-13T23:06:15.078Z,69.01
2023-02-13T23:08:43.439Z,69.10
2023-02-13T23:11:33.987Z,68.72
2023-02-13T23:14:01.503Z,69.11
2023-02-13T23:16:49.307Z,68.92
2023-02-13T23:19:16.777Z,68.89
2023-02-13T23:21:44.075Z,69.27
2023-02-13T23:24:11.384Z,69.86
2023-02-13T23:26:38.756Z,69.77
2023-02-13T23:29:06.000Z,69.91
2023-02-13T23:31:33.331Z,69.70
2023-02-13T23:34:00.914Z,69.55
2023-02-13T23:36:28.669Z,69.91
2023-02-13T23:38:55.998Z,69.89
2023-02-13T23:41:23.306Z,70.67
2023-02-13T23:43:50.630Z,70.42
2023-02-13T23:46:18.079Z,70.40
2023-02-13T23:48:46.076Z,71.34
2023-02-13T23:51:13.478Z,71.29
2023-02-13T23:53:40.774Z,71.32
2023-02-13T23:56:08.082Z,70.88
2023-02-13T23:58:35.532Z,71.15
